sensor_id;sensor_type;location;lat;lon;timestamp;P1;durP1;ratioP1;P2;durP2;ratioP2
64686;SDS011;51113;53.646;-113.674;2023-05-20T00:00:01;164.75;;;97.38;;
64686;SDS011;51113;53.646;-113.674;2023-05-20T00:02:29;182.63;;;108.82;;
64686;SDS011;51113;53.646;-113.674;2023-05-20T00:04:58;185.90;;;110.50;;
64686;SDS011;51113;53.646;-113.674;2023-05-20T00:07:27;186.50;;;113.85;;
64686;SDS011;51113;53.646;-113.674;2023-05-20T00:09:56;190.68;;;111.70;;
64686;SDS011;51113;53.646;-113.674;2023-05-20T00:12:24;194.43;;;117.60;;
64686;SDS011;51113;53.646;-113.674;2023-05-20T00:14:53;192.30;;;113.03;;
64686;SDS011;51113;53.646;-113.674;2023-05-20T00:17:21;193.32;;;116.78;;
64686;SDS011;51113;53.646;-113.674;2023-05-20T00:19:52;196.45;;;114.47;;
64686;SDS011;51113;53.646;-113.674;2023-05-20T00:22:21;196.10;;;113.85;;
64686;SDS011;51113;53.646;-113.674;2023-05-20T00:24:50;181.98;;;107.07;;
64686;SDS011;51113;53.646;-113.674;2023-05-20T00:27:18;172.88;;;102.20;;
64686;SDS011;51113;53.646;-113.674;2023-05-20T00:29:46;156.07;;;95.95;;
64686;SDS011;51113;53.646;-113.674;2023-05-20T00:32:15;158.15;;;91.18;;
64686;SDS011;51113;53.646;-113.674;2023-05-20T00:34:44;160.57;;;95.28;;
64686;SDS011;51113;53.646;-113.674;2023-05-20T00:37:24;162.32;;;96.45;;
64686;SDS011;51113;53.646;-113.674;2023-05-20T00:39:53;162.63;;;97.53;;
64686;SDS011;51113;53.646;-113.674;2023-05-20T00:42:21;149.13;;;90.05;;
64686;SDS011;51113;53.646;-113.674;2023-05-20T00:44:54;156.82;;;92.80;;
64686;SDS011;51113;53.646;-113.674;2023-05-20T00:47:27;155.45;;;91.45;;
64686;SDS011;51113;53.646;-113.674;2023-05-20T00:49:59;148.80;;;87.38;;
64686;SDS011;51113;53.646;-113.674;2023-05-20T00:52:30;150.88;;;91.05;;
64686;SDS011;51113;53.646;-113.674;2023-05-20T00:54:59;155.68;;;87.70;;
64686;SDS011;51113;53.646;-113.674;2023-05-20T00:57:28;155.32;;;91.40;;
64686;SDS011;51113;53.646;-113.674;2023-05-20T00:59:57;148.98;;;90.95;;
64686;SDS011;51113;53.646;-113.674;2023-05-20T01:02:26;148.52;;;89.72;;
64686;SDS011;51113;53.646;-113.674;2023-05-20T01:04:55;160.05;;;88.60;;
64686;SDS011;51113;53.646;-113.674;2023-05-20T01:07:25;161.75;;;89.35;;
64686;SDS011;51113;53.646;-113.674;2023-05-20T01:09:53;152.70;;;89.05;;
64686;SDS011;51113;53.646;-113.674;2023-05-20T01:12:26;154.65;;;90.10;;
64686;SDS011;51113;53.646;-113.674;2023-05-20T01:15:01;142.38;;;87.85;;
64686;SDS011;51113;53.646;-113.674;2023-05-20T01:17:39;150.23;;;88.40;;
64686;SDS011;51113;53.646;-113.674;2023-05-20T01:20:12;150.77;;;87.70;;
64686;SDS011;51113;53.646;-113.674;2023-05-20T01:22:51;143.90;;;87.78;;
64686;SDS011;51113;53.646;-113.674;2023-05-20T01:25:21;155.20;;;86.72;;
64686;SDS011;51113;53.646;-113.674;2023-05-20T01:27:51;160.93;;;88.57;;
64686;SDS011;51113;53.646;-113.674;2023-05-20T01:30:23;152.07;;;90.03;;
64686;SDS011;51113;53.646;-113.674;2023-05-20T01:33:14;152.23;;;90.20;;
64686;SDS011;51113;53.646;-113.674;2023-05-20T01:35:45;155.75;;;90.65;;
64686;SDS011;51113;53.646;-113.674;2023-05-20T01:38:14;166.07;;;92.25;;
64686;SDS011;51113;53.646;-113.674;2023-05-20T01:40:46;153.87;;;90.67;;
64686;SDS011;51113;53.646;-113.674;2023-05-20T01:43:16;163.40;;;89.47;;
64686;SDS011;51113;53.646;-113.674;2023-05-20T01:45:45;168.07;;;93.63;;
64686;SDS011;51113;53.646;-113.674;2023-05-20T01:48:14;164.82;;;89.95;;
64686;SDS011;51113;53.646;-113.674;2023-05-20T01:50:43;164.50;;;91.68;;
64686;SDS011;51113;53.646;-113.674;2023-05-20T01:53:12;165.75;;;91.40;;
64686;SDS011;51113;53.646;-113.674;2023-05-20T01:55:40;158.73;;;91.45;;
64686;SDS011;51113;53.646;-113.674;2023-05-20T01:58:09;168.20;;;92.25;;
64686;SDS011;51113;53.646;-113.674;2023-05-20T02:00:38;164.27;;;90.00;;
64686;SDS011;51113;53.646;-113.674;2023-05-20T02:03:06;158.82;;;89.07;;
64686;SDS011;51113;53.646;-113.674;2023-05-20T02:05:35;163.18;;;91.38;;
64686;SDS011;51113;53.646;-113.674;2023-05-20T02:08:04;165.05;;;90.60;;
64686;SDS011;51113;53.646;-113.674;2023-05-20T02:10:33;176.82;;;90.22;;
64686;SDS011;51113;53.646;-113.674;2023-05-20T02:13:02;171.13;;;93.40;;
64686;SDS011;51113;53.646;-113.674;2023-05-20T02:15:30;170.88;;;91.50;;
64686;SDS011;51113;53.646;-113.674;2023-05-20T02:17:59;158.15;;;88.53;;
64686;SDS011;51113;53.646;-113.674;2023-05-20T02:20:29;174.50;;;91.25;;
64686;SDS011;51113;53.646;-113.674;2023-05-20T02:22:57;162.57;;;89.68;;
64686;SDS011;51113;53.646;-113.674;2023-05-20T02:25:26;168.27;;;91.57;;
64686;SDS011;51113;53.646;-113.674;2023-05-20T02:27:54;173.98;;;91.15;;
64686;SDS011;51113;53.646;-113.674;2023-05-20T02:30:23;163.23;;;89.80;;
64686;SDS011;51113;53.646;-113.674;2023-05-20T02:32:51;178.60;;;88.93;;
64686;SDS011;51113;53.646;-113.674;2023-05-20T02:35:20;168.00;;;86.97;;
64686;SDS011;51113;53.646;-113.674;2023-05-20T02:37:49;169.00;;;89.22;;
64686;SDS011;51113;53.646;-113.674;2023-05-20T02:40:17;161.00;;;87.70;;
64686;SDS011;51113;53.646;-113.674;2023-05-20T02:42:46;171.90;;;88.18;;
64686;SDS011;51113;53.646;-113.674;2023-05-20T02:45:14;169.95;;;89.50;;
64686;SDS011;51113;53.646;-113.674;2023-05-20T02:47:43;169.68;;;89.43;;
64686;SDS011;51113;53.646;-113.674;2023-05-20T02:50:12;177.65;;;92.00;;
64686;SDS011;51113;53.646;-113.674;2023-05-20T02:52:40;188.57;;;88.43;;
64686;SDS011;51113;53.646;-113.674;2023-05-20T02:55:09;169.98;;;89.93;;
64686;SDS011;51113;53.646;-113.674;2023-05-20T02:57:38;183.30;;;91.40;;
64686;SDS011;51113;53.646;-113.674;2023-05-20T03:00:07;179.15;;;92.88;;
64686;SDS011;51113;53.646;-113.674;2023-05-20T03:02:43;163.10;;;87.65;;
64686;SDS011;51113;53.646;-113.674;2023-05-20T03:05:11;165.70;;;89.80;;
64686;SDS011;51113;53.646;-113.674;2023-05-20T03:07:41;175.63;;;86.43;;
64686;SDS011;51113;53.646;-113.674;2023-05-20T03:10:10;162.93;;;86.05;;
64686;SDS011;51113;53.646;-113.674;2023-05-20T03:12:38;166.25;;;86.32;;
64686;SDS011;51113;53.646;-113.674;2023-05-20T03:15:07;168.45;;;91.25;;
64686;SDS011;51113;53.646;-113.674;2023-05-20T03:17:36;163.23;;;85.78;;
64686;SDS011;51113;53.646;-113.674;2023-05-20T03:20:05;168.10;;;84.15;;
64686;SDS011;51113;53.646;-113.674;2023-05-20T03:22:34;153.50;;;79.78;;
64686;SDS011;51113;53.646;-113.674;2023-05-20T03:25:03;183.55;;;88.50;;
64686;SDS011;51113;53.646;-113.674;2023-05-20T03:27:32;176.63;;;90.38;;
64686;SDS011;51113;53.646;-113.674;2023-05-20T03:30:01;168.23;;;89.18;;
64686;SDS011;51113;53.646;-113.674;2023-05-20T03:32:31;183.25;;;92.88;;
64686;SDS011;51113;53.646;-113.674;2023-05-20T03:35:00;167.35;;;89.78;;
64686;SDS011;51113;53.646;-113.674;2023-05-20T03:37:28;180.80;;;94.70;;
64686;SDS011;51113;53.646;-113.674;2023-05-20T03:39:57;183.38;;;95.80;;
64686;SDS011;51113;53.646;-113.674;2023-05-20T03:42:26;196.55;;;98.43;;
64686;SDS011;51113;53.646;-113.674;2023-05-20T03:44:54;173.75;;;95.30;;
64686;SDS011;51113;53.646;-113.674;2023-05-20T03:47:23;176.75;;;96.45;;
64686;SDS011;51113;53.646;-113.674;2023-05-20T03:49:52;181.20;;;100.38;;
64686;SDS011;51113;53.646;-113.674;2023-05-20T03:52:21;207.20;;;102.35;;
64686;SDS011;51113;53.646;-113.674;2023-05-20T03:54:49;185.73;;;101.50;;
64686;SDS011;51113;53.646;-113.674;2023-05-20T03:57:18;188.63;;;102.90;;
64686;SDS011;51113;53.646;-113.674;2023-05-20T03:59:47;198.40;;;103.65;;
64686;SDS011;51113;53.646;-113.674;2023-05-20T04:02:16;200.10;;;107.57;;
64686;SDS011;51113;53.646;-113.674;2023-05-20T04:04:45;201.00;;;102.88;;
64686;SDS011;51113;53.646;-113.674;2023-05-20T04:07:14;190.25;;;105.57;;
64686;SDS011;51113;53.646;-113.674;2023-05-20T04:09:42;188.45;;;101.00;;
64686;SDS011;51113;53.646;-113.674;2023-05-20T04:12:11;196.23;;;105.82;;
64686;SDS011;51113;53.646;-113.674;2023-05-20T04:14:40;179.90;;;99.05;;
64686;SDS011;51113;53.646;-113.674;2023-05-20T04:17:09;177.15;;;97.85;;
64686;SDS011;51113;53.646;-113.674;2023-05-20T04:19:37;192.68;;;103.47;;
64686;SDS011;51113;53.646;-113.674;2023-05-20T04:22:06;194.30;;;110.35;;
64686;SDS011;51113;53.646;-113.674;2023-05-20T04:24:35;194.57;;;105.72;;
64686;SDS011;51113;53.646;-113.674;2023-05-20T04:27:04;172.07;;;98.00;;
64686;SDS011;51113;53.646;-113.674;2023-05-20T04:29:33;180.02;;;101.75;;
64686;SDS011;51113;53.646;-113.674;2023-05-20T04:32:01;193.73;;;107.20;;
64686;SDS011;51113;53.646;-113.674;2023-05-20T04:34:31;190.55;;;99.43;;
64686;SDS011;51113;53.646;-113.674;2023-05-20T04:37:01;188.30;;;102.22;;
64686;SDS011;51113;53.646;-113.674;2023-05-20T04:39:30;190.52;;;104.53;;
64686;SDS011;51113;53.646;-113.674;2023-05-20T04:41:59;171.82;;;95.43;;
64686;SDS011;51113;53.646;-113.674;2023-05-20T04:44:29;179.52;;;96.00;;
64686;SDS011;51113;53.646;-113.674;2023-05-20T04:46:58;184.45;;;103.68;;
64686;SDS011;51113;53.646;-113.674;2023-05-20T04:49:26;195.15;;;106.25;;
64686;SDS011;51113;53.646;-113.674;2023-05-20T04:51:58;183.07;;;104.55;;
64686;SDS011;51113;53.646;-113.674;2023-05-20T04:54:27;191.95;;;103.63;;
64686;SDS011;51113;53.646;-113.674;2023-05-20T04:56:56;190.30;;;105.30;;
64686;SDS011;51113;53.646;-113.674;2023-05-20T04:59:25;198.32;;;106.30;;
64686;SDS011;51113;53.646;-113.674;2023-05-20T05:01:54;188.13;;;102.72;;
64686;SDS011;51113;53.646;-113.674;2023-05-20T05:04:22;186.80;;;106.35;;
64686;SDS011;51113;53.646;-113.674;2023-05-20T05:06:51;178.00;;;98.18;;
64686;SDS011;51113;53.646;-113.674;2023-05-20T05:09:20;174.77;;;95.43;;
64686;SDS011;51113;53.646;-113.674;2023-05-20T05:11:49;184.45;;;98.85;;
64686;SDS011;51113;53.646;-113.674;2023-05-20T05:14:17;175.50;;;96.90;;
64686;SDS011;51113;53.646;-113.674;2023-05-20T05:16:46;194.60;;;107.97;;
64686;SDS011;51113;53.646;-113.674;2023-05-20T05:19:14;178.80;;;95.22;;
64686;SDS011;51113;53.646;-113.674;2023-05-20T05:21:43;182.43;;;99.63;;
64686;SDS011;51113;53.646;-113.674;2023-05-20T05:24:11;187.70;;;104.18;;
64686;SDS011;51113;53.646;-113.674;2023-05-20T05:26:40;197.85;;;104.95;;
64686;SDS011;51113;53.646;-113.674;2023-05-20T05:29:09;196.75;;;105.25;;
64686;SDS011;51113;53.646;-113.674;2023-05-20T05:31:37;199.90;;;104.65;;
64686;SDS011;51113;53.646;-113.674;2023-05-20T05:34:06;192.52;;;108.60;;
64686;SDS011;51113;53.646;-113.674;2023-05-20T05:36:34;202.60;;;105.32;;
64686;SDS011;51113;53.646;-113.674;2023-05-20T05:39:05;192.00;;;105.18;;
64686;SDS011;51113;53.646;-113.674;2023-05-20T05:41:34;196.70;;;106.82;;
64686;SDS011;51113;53.646;-113.674;2023-05-20T05:44:03;199.65;;;108.18;;
64686;SDS011;51113;53.646;-113.674;2023-05-20T05:46:31;198.38;;;108.32;;
64686;SDS011;51113;53.646;-113.674;2023-05-20T05:49:00;176.15;;;95.18;;
64686;SDS011;51113;53.646;-113.674;2023-05-20T05:51:29;196.77;;;105.25;;
64686;SDS011;51113;53.646;-113.674;2023-05-20T05:53:57;214.68;;;110.35;;
64686;SDS011;51113;53.646;-113.674;2023-05-20T05:56:26;195.82;;;110.55;;
64686;SDS011;51113;53.646;-113.674;2023-05-20T05:58:54;213.75;;;111.63;;
64686;SDS011;51113;53.646;-113.674;2023-05-20T06:01:23;208.73;;;112.85;;
64686;SDS011;51113;53.646;-113.674;2023-05-20T06:03:52;215.95;;;115.50;;
64686;SDS011;51113;53.646;-113.674;2023-05-20T06:06:20;208.07;;;112.35;;
64686;SDS011;51113;53.646;-113.674;2023-05-20T06:08:49;207.55;;;113.82;;
64686;SDS011;51113;53.646;-113.674;2023-05-20T06:11:18;197.07;;;110.03;;
64686;SDS011;51113;53.646;-113.674;2023-05-20T06:13:47;205.60;;;113.45;;
64686;SDS011;51113;53.646;-113.674;2023-05-20T06:16:16;215.43;;;112.57;;
64686;SDS011;51113;53.646;-113.674;2023-05-20T06:18:45;196.25;;;104.32;;
64686;SDS011;51113;53.646;-113.674;2023-05-20T06:21:14;198.35;;;106.47;;
64686;SDS011;51113;53.646;-113.674;2023-05-20T06:23:43;215.70;;;110.07;;
64686;SDS011;51113;53.646;-113.674;2023-05-20T06:26:11;192.23;;;104.10;;
64686;SDS011;51113;53.646;-113.674;2023-05-20T06:28:40;204.38;;;112.28;;
64686;SDS011;51113;53.646;-113.674;2023-05-20T06:31:08;197.27;;;107.88;;
64686;SDS011;51113;53.646;-113.674;2023-05-20T06:33:37;200.82;;;109.95;;
64686;SDS011;51113;53.646;-113.674;2023-05-20T06:36:06;202.88;;;110.78;;
64686;SDS011;51113;53.646;-113.674;2023-05-20T06:38:34;195.63;;;106.80;;
64686;SDS011;51113;53.646;-113.674;2023-05-20T06:41:03;214.20;;;112.03;;
64686;SDS011;51113;53.646;-113.674;2023-05-20T06:43:31;210.60;;;111.70;;
64686;SDS011;51113;53.646;-113.674;2023-05-20T06:46:00;195.13;;;103.35;;
64686;SDS011;51113;53.646;-113.674;2023-05-20T06:48:29;209.75;;;111.80;;
64686;SDS011;51113;53.646;-113.674;2023-05-20T06:50:57;187.25;;;98.28;;
64686;SDS011;51113;53.646;-113.674;2023-05-20T06:53:26;203.32;;;107.47;;
64686;SDS011;51113;53.646;-113.674;2023-05-20T06:55:54;224.27;;;111.32;;
64686;SDS011;51113;53.646;-113.674;2023-05-20T06:58:23;222.13;;;114.25;;
64686;SDS011;51113;53.646;-113.674;2023-05-20T07:00:52;207.25;;;105.18;;
64686;SDS011;51113;53.646;-113.674;2023-05-20T07:03:20;199.40;;;105.07;;
64686;SDS011;51113;53.646;-113.674;2023-05-20T07:05:50;201.60;;;108.50;;
64686;SDS011;51113;53.646;-113.674;2023-05-20T07:08:19;209.55;;;111.80;;
64686;SDS011;51113;53.646;-113.674;2023-05-20T07:10:48;203.38;;;111.95;;
64686;SDS011;51113;53.646;-113.674;2023-05-20T07:13:16;207.00;;;111.47;;
64686;SDS011;51113;53.646;-113.674;2023-05-20T07:15:45;195.82;;;109.88;;
64686;SDS011;51113;53.646;-113.674;2023-05-20T07:18:14;204.75;;;109.60;;
64686;SDS011;51113;53.646;-113.674;2023-05-20T07:20:43;206.60;;;112.50;;
64686;SDS011;51113;53.646;-113.674;2023-05-20T07:23:12;211.73;;;113.57;;
64686;SDS011;51113;53.646;-113.674;2023-05-20T07:25:41;225.25;;;116.00;;
64686;SDS011;51113;53.646;-113.674;2023-05-20T07:28:10;217.63;;;117.00;;
64686;SDS011;51113;53.646;-113.674;2023-05-20T07:30:38;224.50;;;115.78;;
64686;SDS011;51113;53.646;-113.674;2023-05-20T07:33:07;220.30;;;115.75;;
64686;SDS011;51113;53.646;-113.674;2023-05-20T07:35:35;215.55;;;112.05;;
64686;SDS011;51113;53.646;-113.674;2023-05-20T07:38:04;203.48;;;105.95;;
64686;SDS011;51113;53.646;-113.674;2023-05-20T07:40:32;210.75;;;111.78;;
64686;SDS011;51113;53.646;-113.674;2023-05-20T07:43:03;200.82;;;110.07;;
64686;SDS011;51113;53.646;-113.674;2023-05-20T07:45:35;218.00;;;112.30;;
64686;SDS011;51113;53.646;-113.674;2023-05-20T07:48:04;209.00;;;112.50;;
64686;SDS011;51113;53.646;-113.674;2023-05-20T07:50:35;214.30;;;116.22;;
64686;SDS011;51113;53.646;-113.674;2023-05-20T07:53:04;219.63;;;115.45;;
64686;SDS011;51113;53.646;-113.674;2023-05-20T07:55:33;217.63;;;114.55;;
64686;SDS011;51113;53.646;-113.674;2023-05-20T07:58:06;220.18;;;114.82;;
64686;SDS011;51113;53.646;-113.674;2023-05-20T08:00:34;208.63;;;108.63;;
64686;SDS011;51113;53.646;-113.674;2023-05-20T08:03:03;214.48;;;107.47;;
64686;SDS011;51113;53.646;-113.674;2023-05-20T08:05:32;208.63;;;110.72;;
64686;SDS011;51113;53.646;-113.674;2023-05-20T08:08:03;219.35;;;114.68;;
64686;SDS011;51113;53.646;-113.674;2023-05-20T08:10:32;215.50;;;113.70;;
64686;SDS011;51113;53.646;-113.674;2023-05-20T08:13:00;194.95;;;107.88;;
64686;SDS011;51113;53.646;-113.674;2023-05-20T08:15:29;205.68;;;109.28;;
64686;SDS011;51113;53.646;-113.674;2023-05-20T08:17:58;214.95;;;112.20;;
64686;SDS011;51113;53.646;-113.674;2023-05-20T08:20:27;217.63;;;111.00;;
64686;SDS011;51113;53.646;-113.674;2023-05-20T08:22:56;205.48;;;108.88;;
64686;SDS011;51113;53.646;-113.674;2023-05-20T08:25:25;214.93;;;112.50;;
64686;SDS011;51113;53.646;-113.674;2023-05-20T08:27:53;215.15;;;114.63;;
64686;SDS011;51113;53.646;-113.674;2023-05-20T08:30:22;218.73;;;110.95;;
64686;SDS011;51113;53.646;-113.674;2023-05-20T08:32:51;207.55;;;108.55;;
64686;SDS011;51113;53.646;-113.674;2023-05-20T08:35:19;208.77;;;112.88;;
64686;SDS011;51113;53.646;-113.674;2023-05-20T08:37:50;217.65;;;111.13;;
64686;SDS011;51113;53.646;-113.674;2023-05-20T08:40:22;208.93;;;109.82;;
64686;SDS011;51113;53.646;-113.674;2023-05-20T08:42:50;226.25;;;119.38;;
64686;SDS011;51113;53.646;-113.674;2023-05-20T08:45:20;226.65;;;118.20;;
64686;SDS011;51113;53.646;-113.674;2023-05-20T08:47:54;217.45;;;115.30;;
64686;SDS011;51113;53.646;-113.674;2023-05-20T08:50:23;229.02;;;118.20;;
64686;SDS011;51113;53.646;-113.674;2023-05-20T08:52:52;213.68;;;112.25;;
64686;SDS011;51113;53.646;-113.674;2023-05-20T08:56:03;224.57;;;118.35;;
64686;SDS011;51113;53.646;-113.674;2023-05-20T08:58:18;228.70;;;122.28;;
64686;SDS011;51113;53.646;-113.674;2023-05-20T09:00:49;235.32;;;120.55;;
64686;SDS011;51113;53.646;-113.674;2023-05-20T09:03:20;228.77;;;121.20;;
64686;SDS011;51113;53.646;-113.674;2023-05-20T09:05:48;238.13;;;121.30;;
64686;SDS011;51113;53.646;-113.674;2023-05-20T09:08:17;231.65;;;116.85;;
64686;SDS011;51113;53.646;-113.674;2023-05-20T09:10:47;223.38;;;113.82;;
64686;SDS011;51113;53.646;-113.674;2023-05-20T09:13:18;228.18;;;117.65;;
64686;SDS011;51113;53.646;-113.674;2023-05-20T09:15:49;221.70;;;115.57;;
64686;SDS011;51113;53.646;-113.674;2023-05-20T09:18:18;237.02;;;117.38;;
64686;SDS011;51113;53.646;-113.674;2023-05-20T09:20:49;231.50;;;114.43;;
64686;SDS011;51113;53.646;-113.674;2023-05-20T09:23:19;232.70;;;114.90;;
64686;SDS011;51113;53.646;-113.674;2023-05-20T09:25:49;234.02;;;114.00;;
64686;SDS011;51113;53.646;-113.674;2023-05-20T09:28:19;223.23;;;112.68;;
64686;SDS011;51113;53.646;-113.674;2023-05-20T09:30:55;232.23;;;116.93;;
64686;SDS011;51113;53.646;-113.674;2023-05-20T09:33:26;220.63;;;114.05;;
64686;SDS011;51113;53.646;-113.674;2023-05-20T09:36:03;226.02;;;113.32;;
64686;SDS011;51113;53.646;-113.674;2023-05-20T09:38:37;248.85;;;122.32;;
64686;SDS011;51113;53.646;-113.674;2023-05-20T09:41:09;205.85;;;104.60;;
64686;SDS011;51113;53.646;-113.674;2023-05-20T09:43:42;236.27;;;122.15;;
64686;SDS011;51113;53.646;-113.674;2023-05-20T09:46:12;237.57;;;122.80;;
64686;SDS011;51113;53.646;-113.674;2023-05-20T09:48:41;239.23;;;121.30;;
64686;SDS011;51113;53.646;-113.674;2023-05-20T09:51:11;239.40;;;122.15;;
64686;SDS011;51113;53.646;-113.674;2023-05-20T09:53:41;239.52;;;122.85;;
64686;SDS011;51113;53.646;-113.674;2023-05-20T09:56:10;257.13;;;128.05;;
64686;SDS011;51113;53.646;-113.674;2023-05-20T09:58:39;251.88;;;129.45;;
64686;SDS011;51113;53.646;-113.674;2023-05-20T10:01:11;255.15;;;128.35;;
64686;SDS011;51113;53.646;-113.674;2023-05-20T10:03:40;251.10;;;124.05;;
64686;SDS011;51113;53.646;-113.674;2023-05-20T10:17:43;311.70;;;149.45;;
64686;SDS011;51113;53.646;-113.674;2023-05-20T10:20:22;311.75;;;147.07;;
64686;SDS011;51113;53.646;-113.674;2023-05-20T10:22:54;313.80;;;154.73;;
64686;SDS011;51113;53.646;-113.674;2023-05-20T10:25:27;316.85;;;153.38;;
64686;SDS011;51113;53.646;-113.674;2023-05-20T10:28:30;329.77;;;159.40;;
64686;SDS011;51113;53.646;-113.674;2023-05-20T10:31:17;328.85;;;163.18;;
64686;SDS011;51113;53.646;-113.674;2023-05-20T10:33:51;338.98;;;164.90;;
64686;SDS011;51113;53.646;-113.674;2023-05-20T10:38:58;355.85;;;172.02;;
64686;SDS011;51113;53.646;-113.674;2023-05-20T10:41:27;345.83;;;172.40;;
64686;SDS011;51113;53.646;-113.674;2023-05-20T10:44:01;340.33;;;173.75;;
64686;SDS011;51113;53.646;-113.674;2023-05-20T10:46:33;352.13;;;178.40;;
64686;SDS011;51113;53.646;-113.674;2023-05-20T10:49:22;361.58;;;178.57;;
64686;SDS011;51113;53.646;-113.674;2023-05-20T10:51:53;367.45;;;178.77;;
64686;SDS011;51113;53.646;-113.674;2023-05-20T10:54:22;364.95;;;184.13;;
64686;SDS011;51113;53.646;-113.674;2023-05-20T10:56:51;388.55;;;185.45;;
64686;SDS011;51113;53.646;-113.674;2023-05-20T10:59:20;378.85;;;181.85;;
64686;SDS011;51113;53.646;-113.674;2023-05-20T11:01:49;360.33;;;183.88;;
64686;SDS011;51113;53.646;-113.674;2023-05-20T11:04:18;365.33;;;187.07;;
64686;SDS011;51113;53.646;-113.674;2023-05-20T11:06:50;373.33;;;190.52;;
64686;SDS011;51113;53.646;-113.674;2023-05-20T11:09:23;381.60;;;186.88;;
64686;SDS011;51113;53.646;-113.674;2023-05-20T11:11:52;380.95;;;192.63;;
64686;SDS011;51113;53.646;-113.674;2023-05-20T11:14:21;372.33;;;188.60;;
64686;SDS011;51113;53.646;-113.674;2023-05-20T11:16:51;355.38;;;184.68;;
64686;SDS011;51113;53.646;-113.674;2023-05-20T11:19:21;380.60;;;192.73;;
64686;SDS011;51113;53.646;-113.674;2023-05-20T11:21:49;387.23;;;192.18;;
64686;SDS011;51113;53.646;-113.674;2023-05-20T11:24:23;350.75;;;185.43;;
64686;SDS011;51113;53.646;-113.674;2023-05-20T11:26:54;366.27;;;186.65;;
64686;SDS011;51113;53.646;-113.674;2023-05-20T11:29:25;379.38;;;190.98;;
64686;SDS011;51113;53.646;-113.674;2023-05-20T11:31:55;365.23;;;187.95;;
64686;SDS011;51113;53.646;-113.674;2023-05-20T11:34:24;360.27;;;183.70;;
64686;SDS011;51113;53.646;-113.674;2023-05-20T11:36:58;361.48;;;178.07;;
64686;SDS011;51113;53.646;-113.674;2023-05-20T11:39:30;368.50;;;184.25;;
64686;SDS011;51113;53.646;-113.674;2023-05-20T11:41:58;349.05;;;180.45;;
64686;SDS011;51113;53.646;-113.674;2023-05-20T11:44:27;367.95;;;181.15;;
64686;SDS011;51113;53.646;-113.674;2023-05-20T11:46:59;374.42;;;186.45;;
64686;SDS011;51113;53.646;-113.674;2023-05-20T11:49:29;370.20;;;181.07;;
64686;SDS011;51113;53.646;-113.674;2023-05-20T11:51:58;369.67;;;186.30;;
64686;SDS011;51113;53.646;-113.674;2023-05-20T11:54:26;378.02;;;183.63;;
64686;SDS011;51113;53.646;-113.674;2023-05-20T11:56:55;364.50;;;182.75;;
64686;SDS011;51113;53.646;-113.674;2023-05-20T11:59:23;370.80;;;181.13;;
64686;SDS011;51113;53.646;-113.674;2023-05-20T12:01:52;358.23;;;179.40;;
64686;SDS011;51113;53.646;-113.674;2023-05-20T12:04:21;365.33;;;179.50;;
64686;SDS011;51113;53.646;-113.674;2023-05-20T12:06:50;365.50;;;181.52;;
64686;SDS011;51113;53.646;-113.674;2023-05-20T12:09:20;340.17;;;168.85;;
64686;SDS011;51113;53.646;-113.674;2023-05-20T12:11:49;368.45;;;177.07;;
64686;SDS011;51113;53.646;-113.674;2023-05-20T12:14:17;367.52;;;185.35;;
64686;SDS011;51113;53.646;-113.674;2023-05-20T12:16:45;380.23;;;187.15;;
64686;SDS011;51113;53.646;-113.674;2023-05-20T12:19:14;366.58;;;186.85;;
64686;SDS011;51113;53.646;-113.674;2023-05-20T12:21:42;365.48;;;181.43;;
64686;SDS011;51113;53.646;-113.674;2023-05-20T12:24:13;357.88;;;181.90;;
64686;SDS011;51113;53.646;-113.674;2023-05-20T12:26:42;347.00;;;172.60;;
64686;SDS011;51113;53.646;-113.674;2023-05-20T12:29:11;381.42;;;183.02;;
64686;SDS011;51113;53.646;-113.674;2023-05-20T12:31:40;365.33;;;181.63;;
64686;SDS011;51113;53.646;-113.674;2023-05-20T12:34:08;362.50;;;176.50;;
64686;SDS011;51113;53.646;-113.674;2023-05-20T12:36:37;371.08;;;184.82;;
64686;SDS011;51113;53.646;-113.674;2023-05-20T12:39:05;372.13;;;183.70;;
64686;SDS011;51113;53.646;-113.674;2023-05-20T12:41:34;364.25;;;176.55;;
64686;SDS011;51113;53.646;-113.674;2023-05-20T12:44:04;346.17;;;175.73;;
64686;SDS011;51113;53.646;-113.674;2023-05-20T12:46:33;363.27;;;177.43;;
64686;SDS011;51113;53.646;-113.674;2023-05-20T12:49:02;365.92;;;185.15;;
64686;SDS011;51113;53.646;-113.674;2023-05-20T12:51:31;363.23;;;188.20;;
64686;SDS011;51113;53.646;-113.674;2023-05-20T12:53:59;371.88;;;184.43;;
64686;SDS011;51113;53.646;-113.674;2023-05-20T12:56:28;364.52;;;181.20;;
64686;SDS011;51113;53.646;-113.674;2023-05-20T12:58:57;366.20;;;181.52;;
64686;SDS011;51113;53.646;-113.674;2023-05-20T13:01:26;371.50;;;186.30;;
64686;SDS011;51113;53.646;-113.674;2023-05-20T13:03:54;372.40;;;182.10;;
64686;SDS011;51113;53.646;-113.674;2023-05-20T13:06:23;387.83;;;187.98;;
64686;SDS011;51113;53.646;-113.674;2023-05-20T13:08:52;381.10;;;186.45;;
64686;SDS011;51113;53.646;-113.674;2023-05-20T13:11:20;341.77;;;168.73;;
64686;SDS011;51113;53.646;-113.674;2023-05-20T13:13:49;356.13;;;178.88;;
64686;SDS011;51113;53.646;-113.674;2023-05-20T13:16:17;368.13;;;187.07;;
64686;SDS011;51113;53.646;-113.674;2023-05-20T13:18:46;373.15;;;183.43;;
64686;SDS011;51113;53.646;-113.674;2023-05-20T13:21:15;370.95;;;180.27;;
64686;SDS011;51113;53.646;-113.674;2023-05-20T13:23:44;358.73;;;172.80;;
64686;SDS011;51113;53.646;-113.674;2023-05-20T13:26:12;358.27;;;178.55;;
64686;SDS011;51113;53.646;-113.674;2023-05-20T13:28:44;365.73;;;182.57;;
64686;SDS011;51113;53.646;-113.674;2023-05-20T13:31:12;348.45;;;178.38;;
64686;SDS011;51113;53.646;-113.674;2023-05-20T13:33:41;349.77;;;179.18;;
64686;SDS011;51113;53.646;-113.674;2023-05-20T13:36:09;363.40;;;184.73;;
64686;SDS011;51113;53.646;-113.674;2023-05-20T13:38:38;366.83;;;184.40;;
64686;SDS011;51113;53.646;-113.674;2023-05-20T13:41:07;353.70;;;180.35;;
64686;SDS011;51113;53.646;-113.674;2023-05-20T13:43:35;368.30;;;179.57;;
64686;SDS011;51113;53.646;-113.674;2023-05-20T13:46:04;352.25;;;176.27;;
64686;SDS011;51113;53.646;-113.674;2023-05-20T13:48:33;361.92;;;183.27;;
64686;SDS011;51113;53.646;-113.674;2023-05-20T13:51:02;359.73;;;183.35;;